Latest Coastal Weather Observations for Point Fawcett

IDD60701

Issued at 4:11 pm CST Saturday 20 December 2014 (issued every 10 minutes, with the page automatically refreshed every 10 minutes)

About coastal observations | Map of coastal stations | Coastal observations for NT | Marine services | Other Formats
Station Details ID: 200731 Name: POINT FAWCETT Lat: -11.76 Lon: 130.03 Height: 6.5 m
Data from the previous 72 hours. | See also: Recent months at Point Fawcett
Date/Time
CST
Temp

°C
Wind Pressure Rain
since 9am
mm
Weather Cloud Vis
km
Sea
Height
m
Swell
Dir
 
Speed
knots
Gust
knots
hPa Trend Height
m
Period
s
Dir
20/04:00pm 32.1 NW 6 7 1005.2 - - - - - - - - -
20/03:30pm 32.4 NW 5 6 1005.4 - - - - - - - - -
20/03:00pm 32.4 NNW 6 7 1005.7 - - - - - - - - -
20/02:30pm 33.1 WNW 5 7 1006.2 - - - - - - - - -
20/02:00pm 33.9 N 5 6 1006.5 - - - - - - - - -
20/01:30pm 33.2 ESE 3 6 1006.8 - - - - - - - - -
20/01:00pm 32.6 E 4 7 1007.3 - - - - - - - - -
20/12:30pm 32.0 SE 4 6 1007.9 - - - - - - - - -
20/12:00pm 32.3 SSE 5 7 1008.4 - - - - - - - - -
20/11:30am 32.9 ESE 6 9 1008.8 - - - - - - - - -
20/11:00am 32.6 SSW 6 9 1009.3 - - - - - - - - -
20/10:30am 31.9 S 6 11 1009.8 - - - - - - - - -
20/10:00am 30.7 S 7 11 1009.9 - - - - - - - - -
20/09:30am 30.0 S 6 9 1010.2 - - - - - - - - -
20/09:00am 29.6 S 5 8 1010.1 - - - - - - - - -
20/08:30am 28.6 S 4 7 1009.9 - - - - - - - - -
20/08:00am 28.1 S 6 9 1009.7 - - - - - - - - -
20/07:30am 28.7 S 7 13 1009.8 - - - - - - - - -
20/07:00am 29.4 SSW 6 9 1009.7 - - - - - - - - -
20/06:30am 29.7 WSW 7 12 1009.3 - - - - - - - - -
20/06:00am 29.8 W 8 11 1008.6 - - - - - - - - -
20/05:30am 29.9 W 10 13 1008.2 - - - - - - - - -
20/05:00am 29.8 WNW 9 11 1007.7 - - - - - - - - -
20/04:30am 29.9 WNW 8 11 1007.9 - - - - - - - - -
20/04:00am 29.8 NW 9 11 1008.1 - - - - - - - - -
20/03:30am 29.8 NW 10 13 1008.0 - - - - - - - - -
20/03:00am 29.9 NW 9 11 1008.3 - - - - - - - - -
20/02:30am 30.0 NW 11 12 1007.9 - - - - - - - - -
20/02:00am 29.9 NW 10 12 1008.2 - - - - - - - - -
20/01:30am 29.9 NW 9 11 1008.3 - - - - - - - - -
20/01:00am 29.9 NW 8 10 1009.3 - - - - - - - - -
20/12:30am 30.1 NW 8 10 1010.1 - - - - - - - - -
20/12:00am 30.1 WNW 8 10 1010.2 - - - - - - - - -
 
Date/Time
CST
Temp

°C
Wind Pressure Rain
since 9am
mm
Weather Cloud Vis
km
Sea
Height
m
Swell
Dir
 
Speed
knots
Gust
knots
hPa Trend Height
m
Period
s
Dir
19/11:30pm 30.2 WNW 7 8 1010.5 - - - - - - - - -
19/11:00pm 30.2 NW 7 9 1010.3 - - - - - - - - -
19/10:30pm 30.2 NW 8 10 1009.9 - - - - - - - - -
19/10:00pm 30.1 NW 8 11 1009.7 - - - - - - - - -
19/09:30pm 30.3 NW 9 11 1009.4 - - - - - - - - -
19/09:00pm 30.3 NW 8 10 1008.9 - - - - - - - - -
19/08:30pm 30.3 NW 7 9 1008.8 - - - - - - - - -
19/08:00pm 30.3 NW 7 9 1008.6 - - - - - - - - -
19/07:30pm 30.5 WNW 7 8 1008.1 - - - - - - - - -
19/07:00pm 30.7 WNW 6 8 1007.7 - - - - - - - - -
19/06:30pm 31.1 WNW 7 9 1007.1 - - - - - - - - -
19/06:00pm 31.5 WNW 8 10 1006.6 - - - - - - - - -
19/05:30pm 32.8 NW 7 9 1006.5 - - - - - - - - -
19/05:00pm 32.8 WNW 10 12 1006.5 - - - - - - - - -
19/04:30pm 33.0 WNW 10 11 1006.8 - - - - - - - - -
19/04:00pm 33.1 WNW 8 11 1007.0 - - - - - - - - -
19/03:30pm 32.8 W 7 9 1007.3 - - - - - - - - -
19/03:00pm 33.2 W 6 8 1007.7 - - - - - - - - -
19/02:30pm 32.5 W 5 7 1008.3 - - - - - - - - -
19/02:00pm 32.0 W 6 9 1008.7 - - - - - - - - -
19/01:30pm 32.3 W 5 7 1009.0 - - - - - - - - -
19/01:00pm 32.0 N 3 4 1009.5 - - - - - - - - -
19/12:30pm 30.9 N 3 5 1009.9 - - - - - - - - -
19/12:00pm 30.3 NNW 2 6 1010.1 - - - - - - - - -
19/11:30am 31.9 W 5 7 1010.2 - - - - - - - - -
19/11:00am 32.6 WNW 5 6 1010.5 - - - - - - - - -
19/10:30am 32.5 NW 5 7 1010.7 - - - - - - - - -
19/10:00am 32.3 WNW 4 6 1010.6 - - - - - - - - -
19/09:30am 32.3 WNW 4 5 1010.6 - - - - - - - - -
19/09:00am 31.9 NW 3 4 1010.5 - - - - - - - - -
19/08:30am 31.1 WNW 5 6 1010.5 - - - - - - - - -
19/08:00am 30.4 WNW 3 5 1010.2 - - - - - - - - -
19/07:30am 29.2 WNW 5 6 1009.9 - - - - - - - - -
19/07:00am 27.8 CALM 0 0 1010.0 - - - - - - - - -
19/06:30am 27.9 WNW 4 6 1009.4 - - - - - - - - -
19/06:00am 29.2 NW 5 6 1008.5 - - - - - - - - -
19/05:30am 29.2 WNW 6 7 1008.4 - - - - - - - - -
19/05:00am 29.4 WNW 6 7 1008.2 - - - - - - - - -
19/04:30am 29.6 W 6 7 1008.2 - - - - - - - - -
19/04:00am 29.6 W 6 8 1008.1 - - - - - - - - -
19/03:30am 29.8 W 7 8 1008.3 - - - - - - - - -
19/03:00am 29.8 W 7 8 1008.3 - - - - - - - - -
19/02:30am 29.9 W 8 10 1008.7 - - - - - - - - -
19/02:00am 30.0 W 7 10 1008.8 - - - - - - - - -
19/01:30am 30.0 WNW 8 9 1008.9 - - - - - - - - -
19/01:00am 30.1 WNW 7 9 1009.1 - - - - - - - - -
19/12:30am 29.9 WNW 6 8 1009.3 - - - - - - - - -
19/12:00am 29.6 WNW 6 7 1009.3 - - - - - - - - -
 
Date/Time
CST
Temp

°C
Wind Pressure Rain
since 9am
mm
Weather Cloud Vis
km
Sea
Height
m
Swell
Dir
 
Speed
knots
Gust
knots
hPa Trend Height
m
Period
s
Dir
18/11:30pm 29.4 WNW 6 7 1009.4 - - - - - - - - -
18/11:00pm 29.8 WNW 6 7 1009.1 - - - - - - - - -
18/10:30pm 29.9 WNW 6 7 1008.9 - - - - - - - - -
18/10:00pm 30.0 W 7 8 1008.8 - - - - - - - - -
18/09:30pm 29.9 W 6 8 1009.0 - - - - - - - - -
18/09:00pm 30.1 WNW 6 7 1008.5 - - - - - - - - -
18/08:30pm 30.1 W 6 7 1008.6 - - - - - - - - -
18/08:00pm 30.2 W 6 8 1008.3 - - - - - - - - -
18/07:30pm 30.1 W 5 6 1008.0 - - - - - - - - -
18/07:00pm 30.2 WNW 5 7 1007.4 - - - - - - - - -
18/06:30pm 30.6 WNW 7 8 1007.0 - - - - - - - - -
18/06:00pm 31.0 WNW 8 10 1006.5 - - - - - - - - -
18/05:30pm 31.1 W 7 10 1006.4 - - - - - - - - -
18/05:00pm 31.2 W 7 9 1006.5 - - - - - - - - -
18/04:30pm 31.8 WNW 7 9 1006.6 - - - - - - - - -
18/04:00pm 33.1 WNW 8 10 1006.7 - - - - - - - - -
18/03:30pm 33.6 W 7 9 1007.4 - - - - - - - - -
18/03:00pm 33.4 WNW 7 9 1007.8 - - - - - - - - -
18/02:30pm 31.9 W 6 8 1008.3 - - - - - - - - -
18/02:00pm 31.3 W 5 7 1008.4 - - - - - - - - -
18/01:30pm 30.9 WNW 5 7 1008.6 - - - - - - - - -
18/01:00pm 31.3 WNW 6 8 1009.1 - - - - - - - - -
18/12:30pm 32.4 WNW 6 8 1009.2 - - - - - - - - -
18/12:00pm 32.4 WNW 7 9 1009.4 - - - - - - - - -
18/11:30am 32.5 NW 6 8 1009.9 - - - - - - - - -
18/11:00am 33.2 NW 7 9 1010.1 - - - - - - - - -
18/10:30am 33.2 NW 7 9 1010.0 - - - - - - - - -
18/10:00am 32.8 NW 8 10 1009.9 - - - - - - - - -
18/09:30am 31.9 NW 8 11 1009.7 - - - - - - - - -
18/09:00am 32.4 NW 7 9 1009.4 - - - - - - - - -
18/08:30am 31.6 NW 6 8 1009.3 - - - - - - - - -
18/08:00am 30.5 NW 6 8 1009.1 - - - - - - - - -
18/07:30am 30.1 WNW 7 9 1008.8 - - - - - - - - -
18/07:00am 29.7 NW 7 9 1008.3 - - - - - - - - -
18/06:30am 29.6 NW 7 8 1007.7 - - - - - - - - -
18/06:00am 29.5 NW 8 9 1007.0 - - - - - - - - -
18/05:30am 29.6 NW 6 7 1006.8 - - - - - - - - -
18/05:00am 29.5 WNW 5 7 1006.6 - - - - - - - - -
18/04:30am 29.7 NW 7 8 1006.3 - - - - - - - - -
18/04:00am 29.7 NNW 7 9 1006.4 - - - - - - - - -
18/03:30am 29.8 NW 8 11 1006.1 - - - - - - - - -
18/03:00am 29.9 NNW 7 8 1006.1 - - - - - - - - -
18/02:30am 29.9 NNW 8 11 1006.0 - - - - - - - - -
18/02:00am 29.8 NNW 7 9 1006.1 - - - - - - - - -
18/01:30am 29.8 NNW 8 10 1006.3 - - - - - - - - -
18/01:00am 30.0 NW 8 10 1007.0 - - - - - - - - -
18/12:30am 30.0 NW 9 11 1007.1 - - - - - - - - -
18/12:00am 30.2 WNW 9 11 1007.4 - - - - - - - - -
 
Date/Time
CST
Temp

°C
Wind Pressure Rain
since 9am
mm
Weather Cloud Vis
km
Sea
Height
m
Swell
Dir
 
Speed
knots
Gust
knots
hPa Trend Height
m
Period
s
Dir
17/11:30pm 30.2 WNW 8 11 1007.7 - - - - - - - - -
17/11:00pm 30.2 W 8 10 1007.9 - - - - - - - - -
17/10:30pm 30.4 WNW 9 11 1007.9 - - - - - - - - -
17/10:00pm 30.3 W 8 10 1008.4 - - - - - - - - -
17/09:30pm 30.4 W 8 10 1008.3 - - - - - - - - -
17/09:00pm 30.6 W 8 10 1008.2 - - - - - - - - -
17/08:00pm 30.6 W 9 11 1007.5 - - - - - - - - -
17/07:30pm 30.7 WNW 9 11 1006.8 - - - - - - - - -
17/07:00pm 30.8 WNW 9 11 1006.4 - - - - - - - - -
17/06:30pm 31.2 WNW 8 10 1006.0 - - - - - - - - -
17/06:00pm 31.7 WNW 9 11 1005.1 - - - - - - - - -
17/05:30pm 32.4 WNW 9 11 1005.0 - - - - - - - - -
17/05:00pm 32.8 NW 10 13 1005.1 - - - - - - - - -
17/04:30pm 33.1 NW 10 13 1005.2 - - - - - - - - -

Other Formats:

Comma delimited format used in spreadsheet applications
http://www.bom.gov.au/fwo/IDD60701/IDD60701.94122.axf

JavaScript Object Notation format (JSON) in row-major order
http://www.bom.gov.au/fwo/IDD60701/IDD60701.94122.json